Saturday, October 25, 2014
12:45 UTC
  |  Log In   |  Register Free
Airport Search:

Skyway Estates Airport
(60G)

Skyway Estates Airport Diagram
No Airport Diagram Available

FAA data valid effective September 18, 2014 - November 13, 2014 (unless otherwise noted).

 
 
 
 
 
 
 
 
 
 
 
 
 
 

Current Aviation Weather for Skyway Estates Airport (60G)

METAR data is unavailable for 60G. The nearest METAR location is at KFPK (7.1 nm SW from 60G).

The most recent METAR observation for KFPK was updated at: 1211
METAR Summary (Translated METAR)
KFPK
251155Z AUTO 23006KT 7SM OVC012 13/10 A2983 RMK AO2 T01270101 10127 20040
(7.1 nm SW from 60G)
K11J
201400Z AUTO 03007KT 010V070 10SM CLR 16/11 A3018 RMK AO2 T01620107
(10.1 nm SE from 60G)
TAF
No TAF information found within 50 nm of KFPK
  Airport Weather Conditions for 60G

Current weather conditions are
not available for 60G


The nearest NOAA weather station
is at FPK, (7.1 nm SW from 60G)
  
 Current Weather at FPK
55° F
Overcast
Southwest winds at 6.9 mph
FPK NOAA Radar

Pressure: 29.83 in
Humidity: 84%
Wind: Southwest at 6.9 MPH (6 KT)
Dew Point: 50.2°F
Visibility: 7.00 mi


Airport Weather Forecast for 60G

Translated METAR and TAF for KFPK
Translated METAR for KFPK (1240 UTC 25 October 2014)
found at http://aviationweather.gov/adds/metars/
 
METAR text: KFPK 251235Z AUTO 24006KT 7SM OVC012 13/11 A2983 RMK AO2 T01310105
Conditions at: KFPK (CHARLOTTE , MI, US) observed 1235 UTC 25 October 2014
Temperature: 13.1°C (56°F)
Dewpoint: 10.5°C (51°F) [RH = 84%]
Pressure (altimeter): 29.83 inches Hg (1010.2 mb)
Winds: from the WSW (240 degrees) at 7 MPH (6 knots; 3.1 m/s)
Visibility: 7 miles (11 km)
Ceiling: 1200 feet AGL
Clouds: overcast cloud deck at 1200 feet AGL
Weather: automated observation with no human augmentation;
there may or may not be significant weather present at this time
Translated TAF for KFPK

There is no translated TAF available for this airport

Find All Airport Services Find A Hotel Find A Rental Car Find A Golf Course Find A Restaurant $100 Hamburger



FBO's on the Field
FBO Company Facility Photos Services Transportation Aviation Fuel Prices: Prices include tax
Catering Weather Repair Courtesy Rental Type 100LL JetA JetA+ MOGAS 8087
 
Add another FBO Facility Photos Catering Weather Repair Courtesy Rental Type 100LL JetA JetA+ MOGAS 8087
Services Transportation Aviation Fuel Prices: Prices include tax
There are no FBO's currently reporting fuel at 60G. List your FBO now


model-print
model-print
model-print
model-print